SBCH

Chapecó/Serafin Enoss Bertaso Airport

Airport
ICAO code
SBCH
IATA Code
XAP
Summary
ICAO Region
CARSAM
ICAO Territory
Location

Chapeco, Santa Caterina

Serving
Chapeco
Elevation
2146 ft
Coordinates
27° 8' 3" S , 52° 39' 38" W
KCC
Metar
SBCH 151200Z 14008KT 6000 2000E OVC004 12/12 Q1026

Serafin Enoss Bertaso Airport serves the town of Chapecó, Brazil.

Climatology

Humid subtropical climate (Köppen climate classification Cfa)

Runways

Designator Length Width Surface Rops
11/29 2063 45 ASP No/No

Airport map

Aerial View

SKYbrary Partners:

Safety knowledge contributed by: